sensor_id;sensor_type;location;lat;lon;timestamp;temperature;humidity
12708;DHT22;6418;50.824;4.718;2023-06-14T00:02:25;19.60;92.80
12708;DHT22;6418;50.824;4.718;2023-06-14T00:04:52;19.50;92.50
12708;DHT22;6418;50.824;4.718;2023-06-14T00:07:33;19.40;94.50
12708;DHT22;6418;50.824;4.718;2023-06-14T00:10:01;19.30;93.10
12708;DHT22;6418;50.824;4.718;2023-06-14T00:12:28;19.30;93.30
12708;DHT22;6418;50.824;4.718;2023-06-14T00:14:55;19.30;93.10
12708;DHT22;6418;50.824;4.718;2023-06-14T00:17:22;19.20;93.50
12708;DHT22;6418;50.824;4.718;2023-06-14T00:19:49;19.20;93.00
12708;DHT22;6418;50.824;4.718;2023-06-14T00:22:16;19.10;94.00
12708;DHT22;6418;50.824;4.718;2023-06-14T00:24:44;19.10;92.90
12708;DHT22;6418;50.824;4.718;2023-06-14T00:27:11;19.10;93.40
12708;DHT22;6418;50.824;4.718;2023-06-14T00:29:37;19.10;93.00
12708;DHT22;6418;50.824;4.718;2023-06-14T00:32:05;19.00;92.90
12708;DHT22;6418;50.824;4.718;2023-06-14T00:34:33;19.00;93.20
12708;DHT22;6418;50.824;4.718;2023-06-14T00:37:00;19.00;93.60
12708;DHT22;6418;50.824;4.718;2023-06-14T00:39:27;18.90;94.30
12708;DHT22;6418;50.824;4.718;2023-06-14T00:41:55;18.90;93.80
12708;DHT22;6418;50.824;4.718;2023-06-14T00:44:23;18.90;94.10
12708;DHT22;6418;50.824;4.718;2023-06-14T00:46:50;18.80;94.50
12708;DHT22;6418;50.824;4.718;2023-06-14T00:49:18;18.80;93.70
12708;DHT22;6418;50.824;4.718;2023-06-14T00:51:45;18.70;94.20
12708;DHT22;6418;50.824;4.718;2023-06-14T00:54:12;18.70;94.30
12708;DHT22;6418;50.824;4.718;2023-06-14T00:56:39;18.70;93.90
12708;DHT22;6418;50.824;4.718;2023-06-14T00:59:08;18.70;94.00
12708;DHT22;6418;50.824;4.718;2023-06-14T01:01:36;18.70;93.90
12708;DHT22;6418;50.824;4.718;2023-06-14T01:04:04;18.70;93.90
12708;DHT22;6418;50.824;4.718;2023-06-14T01:06:35;18.70;93.40
12708;DHT22;6418;50.824;4.718;2023-06-14T01:09:15;18.60;93.90
12708;DHT22;6418;50.824;4.718;2023-06-14T01:11:50;18.60;94.50
12708;DHT22;6418;50.824;4.718;2023-06-14T01:14:22;18.50;95.80
12708;DHT22;6418;50.824;4.718;2023-06-14T01:16:51;18.50;94.70
12708;DHT22;6418;50.824;4.718;2023-06-14T01:19:19;18.40;95.00
12708;DHT22;6418;50.824;4.718;2023-06-14T01:21:48;18.40;95.00
12708;DHT22;6418;50.824;4.718;2023-06-14T01:24:18;18.40;95.00
12708;DHT22;6418;50.824;4.718;2023-06-14T01:26:49;18.30;94.90
12708;DHT22;6418;50.824;4.718;2023-06-14T01:29:22;18.30;94.70
12708;DHT22;6418;50.824;4.718;2023-06-14T01:31:51;18.30;94.80
12708;DHT22;6418;50.824;4.718;2023-06-14T01:34:18;18.20;95.80
12708;DHT22;6418;50.824;4.718;2023-06-14T01:36:45;18.20;95.60
12708;DHT22;6418;50.824;4.718;2023-06-14T01:39:14;18.10;95.10
12708;DHT22;6418;50.824;4.718;2023-06-14T01:41:44;18.10;95.10
12708;DHT22;6418;50.824;4.718;2023-06-14T01:44:13;18.00;95.60
12708;DHT22;6418;50.824;4.718;2023-06-14T01:46:42;18.00;96.00
12708;DHT22;6418;50.824;4.718;2023-06-14T01:49:11;17.90;96.40
12708;DHT22;6418;50.824;4.718;2023-06-14T01:51:37;17.80;96.50
12708;DHT22;6418;50.824;4.718;2023-06-14T01:54:05;17.80;96.00
12708;DHT22;6418;50.824;4.718;2023-06-14T01:56:32;17.80;96.50
12708;DHT22;6418;50.824;4.718;2023-06-14T01:59:00;17.70;95.00
12708;DHT22;6418;50.824;4.718;2023-06-14T02:01:27;17.70;95.00
12708;DHT22;6418;50.824;4.718;2023-06-14T02:03:54;17.60;97.20
12708;DHT22;6418;50.824;4.718;2023-06-14T02:06:21;17.60;95.30
12708;DHT22;6418;50.824;4.718;2023-06-14T02:08:48;17.50;96.80
12708;DHT22;6418;50.824;4.718;2023-06-14T02:11:15;17.50;95.70
12708;DHT22;6418;50.824;4.718;2023-06-14T02:13:42;17.50;95.90
12708;DHT22;6418;50.824;4.718;2023-06-14T02:16:10;17.40;95.70
12708;DHT22;6418;50.824;4.718;2023-06-14T02:18:37;17.50;95.30
12708;DHT22;6418;50.824;4.718;2023-06-14T02:21:04;17.40;97.10
12708;DHT22;6418;50.824;4.718;2023-06-14T02:23:31;17.40;96.90
12708;DHT22;6418;50.824;4.718;2023-06-14T02:25:59;17.30;96.20
12708;DHT22;6418;50.824;4.718;2023-06-14T02:28:25;17.20;96.40
12708;DHT22;6418;50.824;4.718;2023-06-14T02:30:52;17.20;96.20
12708;DHT22;6418;50.824;4.718;2023-06-14T02:33:20;17.10;97.90
12708;DHT22;6418;50.824;4.718;2023-06-14T02:35:48;17.00;97.60
12708;DHT22;6418;50.824;4.718;2023-06-14T02:38:15;17.00;98.30
12708;DHT22;6418;50.824;4.718;2023-06-14T02:40:42;16.90;98.30
12708;DHT22;6418;50.824;4.718;2023-06-14T02:43:09;16.90;98.30
12708;DHT22;6418;50.824;4.718;2023-06-14T02:45:36;16.90;97.60
12708;DHT22;6418;50.824;4.718;2023-06-14T02:48:03;16.90;96.90
12708;DHT22;6418;50.824;4.718;2023-06-14T02:50:32;16.90;97.00
12708;DHT22;6418;50.824;4.718;2023-06-14T02:52:59;16.80;97.90
12708;DHT22;6418;50.824;4.718;2023-06-14T02:55:26;16.90;97.40
12708;DHT22;6418;50.824;4.718;2023-06-14T02:57:53;16.80;96.70
12708;DHT22;6418;50.824;4.718;2023-06-14T03:00:20;16.80;96.60
12708;DHT22;6418;50.824;4.718;2023-06-14T03:02:47;16.80;97.30
12708;DHT22;6418;50.824;4.718;2023-06-14T03:05:14;16.80;96.20
12708;DHT22;6418;50.824;4.718;2023-06-14T03:07:42;16.80;96.20
12708;DHT22;6418;50.824;4.718;2023-06-14T03:10:11;16.80;95.80
12708;DHT22;6418;50.824;4.718;2023-06-14T03:12:38;16.80;96.00
12708;DHT22;6418;50.824;4.718;2023-06-14T03:15:06;16.80;96.30
12708;DHT22;6418;50.824;4.718;2023-06-14T03:17:33;16.70;95.60
12708;DHT22;6418;50.824;4.718;2023-06-14T03:20:00;16.70;96.10
12708;DHT22;6418;50.824;4.718;2023-06-14T03:22:29;16.70;96.00
12708;DHT22;6418;50.824;4.718;2023-06-14T03:24:57;16.70;96.80
12708;DHT22;6418;50.824;4.718;2023-06-14T03:27:24;16.70;96.30
12708;DHT22;6418;50.824;4.718;2023-06-14T03:29:54;16.70;96.60
12708;DHT22;6418;50.824;4.718;2023-06-14T03:32:21;16.70;97.00
12708;DHT22;6418;50.824;4.718;2023-06-14T03:34:47;16.60;96.70
12708;DHT22;6418;50.824;4.718;2023-06-14T03:37:14;16.60;96.40
12708;DHT22;6418;50.824;4.718;2023-06-14T03:39:41;16.60;96.70
12708;DHT22;6418;50.824;4.718;2023-06-14T03:42:13;16.60;97.10
12708;DHT22;6418;50.824;4.718;2023-06-14T03:44:40;16.60;96.40
12708;DHT22;6418;50.824;4.718;2023-06-14T03:47:07;16.60;96.70
12708;DHT22;6418;50.824;4.718;2023-06-14T03:49:35;16.60;96.20
12708;DHT22;6418;50.824;4.718;2023-06-14T03:52:02;16.50;97.90
12708;DHT22;6418;50.824;4.718;2023-06-14T03:54:29;16.50;96.90
12708;DHT22;6418;50.824;4.718;2023-06-14T03:56:58;16.50;97.10
12708;DHT22;6418;50.824;4.718;2023-06-14T03:59:26;16.50;96.50
12708;DHT22;6418;50.824;4.718;2023-06-14T04:01:54;16.50;96.50
12708;DHT22;6418;50.824;4.718;2023-06-14T04:04:21;16.50;96.50
12708;DHT22;6418;50.824;4.718;2023-06-14T04:06:54;16.60;96.90
12708;DHT22;6418;50.824;4.718;2023-06-14T04:09:23;16.50;97.20
12708;DHT22;6418;50.824;4.718;2023-06-14T04:11:51;16.50;97.30
12708;DHT22;6418;50.824;4.718;2023-06-14T04:14:18;16.50;98.10
12708;DHT22;6418;50.824;4.718;2023-06-14T04:16:47;16.50;97.60
12708;DHT22;6418;50.824;4.718;2023-06-14T04:19:15;16.50;97.90
12708;DHT22;6418;50.824;4.718;2023-06-14T04:21:42;16.50;98.40
12708;DHT22;6418;50.824;4.718;2023-06-14T04:24:08;16.50;97.30
12708;DHT22;6418;50.824;4.718;2023-06-14T04:26:38;16.50;97.90
12708;DHT22;6418;50.824;4.718;2023-06-14T04:29:05;16.50;97.90
12708;DHT22;6418;50.824;4.718;2023-06-14T04:31:32;16.50;98.10
12708;DHT22;6418;50.824;4.718;2023-06-14T04:34:04;16.50;98.00
12708;DHT22;6418;50.824;4.718;2023-06-14T04:36:32;16.50;98.10
12708;DHT22;6418;50.824;4.718;2023-06-14T04:39:00;16.50;98.00
12708;DHT22;6418;50.824;4.718;2023-06-14T04:41:28;16.50;98.30
12708;DHT22;6418;50.824;4.718;2023-06-14T04:43:56;16.40;99.50
12708;DHT22;6418;50.824;4.718;2023-06-14T04:46:27;16.50;98.50
12708;DHT22;6418;50.824;4.718;2023-06-14T04:48:54;16.50;99.00
12708;DHT22;6418;50.824;4.718;2023-06-14T04:51:22;16.50;98.40
12708;DHT22;6418;50.824;4.718;2023-06-14T04:53:55;16.50;98.70
12708;DHT22;6418;50.824;4.718;2023-06-14T04:56:24;16.50;98.80
12708;DHT22;6418;50.824;4.718;2023-06-14T04:58:51;16.50;98.90
12708;DHT22;6418;50.824;4.718;2023-06-14T05:01:18;16.60;98.70
12708;DHT22;6418;50.824;4.718;2023-06-14T05:03:46;16.60;99.50
12708;DHT22;6418;50.824;4.718;2023-06-14T05:06:14;16.70;99.80
12708;DHT22;6418;50.824;4.718;2023-06-14T05:08:44;16.70;99.90
12708;DHT22;6418;50.824;4.718;2023-06-14T05:11:11;16.70;99.90
12708;DHT22;6418;50.824;4.718;2023-06-14T05:13:38;16.80;99.90
12708;DHT22;6418;50.824;4.718;2023-06-14T05:16:05;16.80;99.90
12708;DHT22;6418;50.824;4.718;2023-06-14T05:18:32;16.90;99.90
12708;DHT22;6418;50.824;4.718;2023-06-14T05:21:00;17.00;99.90
12708;DHT22;6418;50.824;4.718;2023-06-14T05:23:27;17.00;99.90
12708;DHT22;6418;50.824;4.718;2023-06-14T05:25:56;17.10;99.90
12708;DHT22;6418;50.824;4.718;2023-06-14T05:28:23;17.20;99.90
12708;DHT22;6418;50.824;4.718;2023-06-14T05:30:50;17.20;99.90
12708;DHT22;6418;50.824;4.718;2023-06-14T05:33:17;17.30;99.90
12708;DHT22;6418;50.824;4.718;2023-06-14T05:35:44;17.40;99.90
12708;DHT22;6418;50.824;4.718;2023-06-14T05:38:11;17.40;99.90
12708;DHT22;6418;50.824;4.718;2023-06-14T05:40:38;17.50;99.90
12708;DHT22;6418;50.824;4.718;2023-06-14T05:43:06;17.60;99.90
12708;DHT22;6418;50.824;4.718;2023-06-14T05:45:33;17.60;99.90
12708;DHT22;6418;50.824;4.718;2023-06-14T06:18:57;17.90;99.90
12708;DHT22;6418;50.824;4.718;2023-06-14T06:21:24;18.80;99.90
12708;DHT22;6418;50.824;4.718;2023-06-14T06:23:51;18.80;99.90
12708;DHT22;6418;50.824;4.718;2023-06-14T06:26:18;18.80;99.90
12708;DHT22;6418;50.824;4.718;2023-06-14T06:28:45;18.90;99.90
12708;DHT22;6418;50.824;4.718;2023-06-14T06:31:12;18.90;99.90
12708;DHT22;6418;50.824;4.718;2023-06-14T06:33:38;19.00;99.90
12708;DHT22;6418;50.824;4.718;2023-06-14T06:36:07;19.00;99.90
12708;DHT22;6418;50.824;4.718;2023-06-14T06:38:34;19.00;99.90
12708;DHT22;6418;50.824;4.718;2023-06-14T06:41:01;19.10;99.90
12708;DHT22;6418;50.824;4.718;2023-06-14T06:43:28;19.10;99.90
12708;DHT22;6418;50.824;4.718;2023-06-14T06:45:55;19.20;99.90
12708;DHT22;6418;50.824;4.718;2023-06-14T06:48:22;19.30;99.90
12708;DHT22;6418;50.824;4.718;2023-06-14T06:50:49;19.30;99.90
12708;DHT22;6418;50.824;4.718;2023-06-14T06:53:18;19.40;99.80
12708;DHT22;6418;50.824;4.718;2023-06-14T06:55:45;19.50;99.90
12708;DHT22;6418;50.824;4.718;2023-06-14T06:58:12;19.50;99.90
12708;DHT22;6418;50.824;4.718;2023-06-14T07:00:39;19.60;99.90
12708;DHT22;6418;50.824;4.718;2023-06-14T07:03:06;19.60;99.80
12708;DHT22;6418;50.824;4.718;2023-06-14T07:05:33;19.70;99.50
12708;DHT22;6418;50.824;4.718;2023-06-14T07:08:00;19.80;99.30
12708;DHT22;6418;50.824;4.718;2023-06-14T07:10:28;19.80;99.10
12708;DHT22;6418;50.824;4.718;2023-06-14T07:12:56;19.90;99.10
12708;DHT22;6418;50.824;4.718;2023-06-14T07:15:23;19.90;99.30
12708;DHT22;6418;50.824;4.718;2023-06-14T07:17:50;20.00;99.00
12708;DHT22;6418;50.824;4.718;2023-06-14T07:20:18;20.10;98.70
12708;DHT22;6418;50.824;4.718;2023-06-14T07:22:48;20.10;98.90
12708;DHT22;6418;50.824;4.718;2023-06-14T07:25:15;20.10;98.70
12708;DHT22;6418;50.824;4.718;2023-06-14T07:27:46;20.20;98.60
12708;DHT22;6418;50.824;4.718;2023-06-14T07:30:13;20.20;98.90
12708;DHT22;6418;50.824;4.718;2023-06-14T07:32:40;20.30;98.90
12708;DHT22;6418;50.824;4.718;2023-06-14T07:35:08;20.40;98.80
12708;DHT22;6418;50.824;4.718;2023-06-14T07:37:35;20.40;98.40
12708;DHT22;6418;50.824;4.718;2023-06-14T07:40:02;20.50;98.30
12708;DHT22;6418;50.824;4.718;2023-06-14T07:42:33;20.60;99.00
12708;DHT22;6418;50.824;4.718;2023-06-14T07:45:01;20.70;98.60
12708;DHT22;6418;50.824;4.718;2023-06-14T07:47:28;20.70;98.30
12708;DHT22;6418;50.824;4.718;2023-06-14T07:49:55;20.80;98.50
12708;DHT22;6418;50.824;4.718;2023-06-14T07:52:22;20.90;98.30
12708;DHT22;6418;50.824;4.718;2023-06-14T07:54:49;20.90;98.50
12708;DHT22;6418;50.824;4.718;2023-06-14T07:57:16;21.00;98.70
12708;DHT22;6418;50.824;4.718;2023-06-14T07:59:45;21.00;98.50
12708;DHT22;6418;50.824;4.718;2023-06-14T08:02:14;21.10;98.00
12708;DHT22;6418;50.824;4.718;2023-06-14T08:04:41;21.20;98.50
12708;DHT22;6418;50.824;4.718;2023-06-14T08:07:08;21.30;97.90
12708;DHT22;6418;50.824;4.718;2023-06-14T08:09:35;21.40;97.10
12708;DHT22;6418;50.824;4.718;2023-06-14T08:12:04;21.50;97.90
12708;DHT22;6418;50.824;4.718;2023-06-14T08:14:33;21.50;97.90
12708;DHT22;6418;50.824;4.718;2023-06-14T08:16:59;21.60;97.70
12708;DHT22;6418;50.824;4.718;2023-06-14T08:19:28;21.70;97.90
12708;DHT22;6418;50.824;4.718;2023-06-14T08:21:55;21.80;98.30
12708;DHT22;6418;50.824;4.718;2023-06-14T08:24:22;21.80;97.80
12708;DHT22;6418;50.824;4.718;2023-06-14T08:26:50;21.90;97.30
12708;DHT22;6418;50.824;4.718;2023-06-14T08:29:17;21.90;97.50
12708;DHT22;6418;50.824;4.718;2023-06-14T08:31:44;22.00;97.70
12708;DHT22;6418;50.824;4.718;2023-06-14T08:34:11;22.10;97.30
12708;DHT22;6418;50.824;4.718;2023-06-14T08:36:39;22.10;97.90
12708;DHT22;6418;50.824;4.718;2023-06-14T08:39:06;22.20;97.70
12708;DHT22;6418;50.824;4.718;2023-06-14T08:41:34;22.30;97.50
12708;DHT22;6418;50.824;4.718;2023-06-14T08:44:02;22.30;97.60
12708;DHT22;6418;50.824;4.718;2023-06-14T08:46:32;22.40;97.10
12708;DHT22;6418;50.824;4.718;2023-06-14T08:49:01;22.40;96.90
12708;DHT22;6418;50.824;4.718;2023-06-14T08:51:31;22.50;96.80
12708;DHT22;6418;50.824;4.718;2023-06-14T08:54:01;22.50;96.70
12708;DHT22;6418;50.824;4.718;2023-06-14T08:56:30;22.50;96.40
12708;DHT22;6418;50.824;4.718;2023-06-14T08:58:58;22.60;96.50
12708;DHT22;6418;50.824;4.718;2023-06-14T09:01:28;22.60;96.70
12708;DHT22;6418;50.824;4.718;2023-06-14T09:03:56;22.70;96.30
12708;DHT22;6418;50.824;4.718;2023-06-14T09:06:24;22.70;96.30
12708;DHT22;6418;50.824;4.718;2023-06-14T09:08:54;22.80;95.10
12708;DHT22;6418;50.824;4.718;2023-06-14T09:11:24;22.80;95.10
12708;DHT22;6418;50.824;4.718;2023-06-14T09:13:52;22.80;95.40
12708;DHT22;6418;50.824;4.718;2023-06-14T09:16:19;22.80;95.60
12708;DHT22;6418;50.824;4.718;2023-06-14T09:18:47;22.90;95.10
12708;DHT22;6418;50.824;4.718;2023-06-14T09:21:15;23.00;95.90
12708;DHT22;6418;50.824;4.718;2023-06-14T09:23:43;23.10;95.50
12708;DHT22;6418;50.824;4.718;2023-06-14T09:26:12;23.10;95.50
12708;DHT22;6418;50.824;4.718;2023-06-14T09:28:43;23.10;95.20
12708;DHT22;6418;50.824;4.718;2023-06-14T09:31:11;23.20;94.80
12708;DHT22;6418;50.824;4.718;2023-06-14T09:33:38;23.20;95.40
12708;DHT22;6418;50.824;4.718;2023-06-14T09:36:10;23.40;93.80
12708;DHT22;6418;50.824;4.718;2023-06-14T09:38:38;23.40;93.10
12708;DHT22;6418;50.824;4.718;2023-06-14T09:41:06;23.40;93.30
12708;DHT22;6418;50.824;4.718;2023-06-14T09:43:33;23.40;93.70
12708;DHT22;6418;50.824;4.718;2023-06-14T09:46:03;23.50;93.80
12708;DHT22;6418;50.824;4.718;2023-06-14T09:48:31;23.60;93.50
12708;DHT22;6418;50.824;4.718;2023-06-14T09:50:58;23.60;93.30
12708;DHT22;6418;50.824;4.718;2023-06-14T09:53:26;23.60;93.20
12708;DHT22;6418;50.824;4.718;2023-06-14T09:55:55;23.70;93.50
12708;DHT22;6418;50.824;4.718;2023-06-14T09:58:26;23.60;92.70
12708;DHT22;6418;50.824;4.718;2023-06-14T10:00:55;23.70;93.10
12708;DHT22;6418;50.824;4.718;2023-06-14T10:03:28;23.80;92.60
12708;DHT22;6418;50.824;4.718;2023-06-14T10:05:56;23.90;92.30
12708;DHT22;6418;50.824;4.718;2023-06-14T10:08:27;23.90;92.80
12708;DHT22;6418;50.824;4.718;2023-06-14T10:10:56;24.00;93.50
12708;DHT22;6418;50.824;4.718;2023-06-14T10:13:23;24.00;92.60
12708;DHT22;6418;50.824;4.718;2023-06-14T10:15:58;24.10;92.60
12708;DHT22;6418;50.824;4.718;2023-06-14T10:18:33;24.20;93.10
12708;DHT22;6418;50.824;4.718;2023-06-14T10:21:08;24.30;92.00
12708;DHT22;6418;50.824;4.718;2023-06-14T10:23:42;24.30;91.30
12708;DHT22;6418;50.824;4.718;2023-06-14T10:26:18;24.40;91.50
12708;DHT22;6418;50.824;4.718;2023-06-14T10:28:56;24.40;91.50
12708;DHT22;6418;50.824;4.718;2023-06-14T10:31:23;24.40;91.80
12708;DHT22;6418;50.824;4.718;2023-06-14T10:34:07;24.50;92.10
12708;DHT22;6418;50.824;4.718;2023-06-14T10:36:34;24.50;91.50
12708;DHT22;6418;50.824;4.718;2023-06-14T10:39:05;24.60;91.20
12708;DHT22;6418;50.824;4.718;2023-06-14T10:41:35;24.60;91.30
12708;DHT22;6418;50.824;4.718;2023-06-14T10:47:25;24.70;91.50
12708;DHT22;6418;50.824;4.718;2023-06-14T10:49:55;24.80;91.40
12708;DHT22;6418;50.824;4.718;2023-06-14T10:52:25;24.80;91.40
12708;DHT22;6418;50.824;4.718;2023-06-14T10:55:11;24.80;90.80
12708;DHT22;6418;50.824;4.718;2023-06-14T10:57:41;24.90;90.30
12708;DHT22;6418;50.824;4.718;2023-06-14T11:00:10;24.80;87.70
12708;DHT22;6418;50.824;4.718;2023-06-14T11:05:52;24.90;88.70
12708;DHT22;6418;50.824;4.718;2023-06-14T11:09:03;24.90;87.10
12708;DHT22;6418;50.824;4.718;2023-06-14T11:11:36;25.00;88.90
12708;DHT22;6418;50.824;4.718;2023-06-14T11:14:04;25.00;90.30
12708;DHT22;6418;50.824;4.718;2023-06-14T11:16:31;24.90;87.20
12708;DHT22;6418;50.824;4.718;2023-06-14T11:19:00;25.00;88.50
12708;DHT22;6418;50.824;4.718;2023-06-14T11:21:31;25.10;89.30
12708;DHT22;6418;50.824;4.718;2023-06-14T11:23:59;25.10;88.40
12708;DHT22;6418;50.824;4.718;2023-06-14T11:26:26;25.20;86.40
12708;DHT22;6418;50.824;4.718;2023-06-14T11:28:55;25.20;87.80
12708;DHT22;6418;50.824;4.718;2023-06-14T11:31:23;25.20;85.40
12708;DHT22;6418;50.824;4.718;2023-06-14T11:33:50;25.30;88.40
12708;DHT22;6418;50.824;4.718;2023-06-14T11:36:17;25.30;88.30
12708;DHT22;6418;50.824;4.718;2023-06-14T11:38:45;25.40;86.80
12708;DHT22;6418;50.824;4.718;2023-06-14T11:41:12;25.50;88.30
12708;DHT22;6418;50.824;4.718;2023-06-14T11:43:39;25.50;88.00
12708;DHT22;6418;50.824;4.718;2023-06-14T11:46:12;25.60;89.50
12708;DHT22;6418;50.824;4.718;2023-06-14T11:48:41;25.70;88.70
12708;DHT22;6418;50.824;4.718;2023-06-14T11:51:08;25.70;84.70
12708;DHT22;6418;50.824;4.718;2023-06-14T11:53:36;25.70;86.30
12708;DHT22;6418;50.824;4.718;2023-06-14T11:56:05;25.70;85.30
12708;DHT22;6418;50.824;4.718;2023-06-14T11:58:32;25.60;85.00
12708;DHT22;6418;50.824;4.718;2023-06-14T12:00:59;25.70;86.10
12708;DHT22;6418;50.824;4.718;2023-06-14T12:03:26;25.70;86.90
12708;DHT22;6418;50.824;4.718;2023-06-14T12:06:04;25.90;86.10
12708;DHT22;6418;50.824;4.718;2023-06-14T12:08:33;25.90;86.50
12708;DHT22;6418;50.824;4.718;2023-06-14T12:11:06;26.00;86.70
12708;DHT22;6418;50.824;4.718;2023-06-14T12:13:37;26.10;85.30
12708;DHT22;6418;50.824;4.718;2023-06-14T12:16:04;26.10;82.00
12708;DHT22;6418;50.824;4.718;2023-06-14T12:18:35;26.00;83.60
12708;DHT22;6418;50.824;4.718;2023-06-14T12:21:04;26.10;84.00
12708;DHT22;6418;50.824;4.718;2023-06-14T12:23:45;26.20;84.70
12708;DHT22;6418;50.824;4.718;2023-06-14T12:26:14;26.30;84.90
12708;DHT22;6418;50.824;4.718;2023-06-14T12:28:42;26.30;83.00
12708;DHT22;6418;50.824;4.718;2023-06-14T12:31:10;26.40;83.10
12708;DHT22;6418;50.824;4.718;2023-06-14T12:33:38;26.50;83.90
12708;DHT22;6418;50.824;4.718;2023-06-14T12:36:07;26.50;81.40
12708;DHT22;6418;50.824;4.718;2023-06-14T12:38:34;26.50;79.40
12708;DHT22;6418;50.824;4.718;2023-06-14T12:41:01;26.40;78.90
12708;DHT22;6418;50.824;4.718;2023-06-14T12:43:29;26.50;81.30
12708;DHT22;6418;50.824;4.718;2023-06-14T12:45:56;26.60;80.30
12708;DHT22;6418;50.824;4.718;2023-06-14T12:48:23;26.70;79.70
12708;DHT22;6418;50.824;4.718;2023-06-14T12:50:50;26.90;79.80
12708;DHT22;6418;50.824;4.718;2023-06-14T12:53:17;27.10;80.40
12708;DHT22;6418;50.824;4.718;2023-06-14T12:55:44;27.40;79.50
12708;DHT22;6418;50.824;4.718;2023-06-14T12:58:11;27.70;79.60
12708;DHT22;6418;50.824;4.718;2023-06-14T13:00:40;28.00;77.30
12708;DHT22;6418;50.824;4.718;2023-06-14T13:03:07;28.10;77.90
12708;DHT22;6418;50.824;4.718;2023-06-14T13:05:34;28.40;77.00
12708;DHT22;6418;50.824;4.718;2023-06-14T13:08:03;28.80;75.40
12708;DHT22;6418;50.824;4.718;2023-06-14T13:10:30;29.20;76.30
12708;DHT22;6418;50.824;4.718;2023-06-14T13:12:57;29.60;76.90
12708;DHT22;6418;50.824;4.718;2023-06-14T13:15:25;30.00;78.20
12708;DHT22;6418;50.824;4.718;2023-06-14T13:17:54;30.50;74.40
12708;DHT22;6418;50.824;4.718;2023-06-14T13:20:20;30.70;74.40
12708;DHT22;6418;50.824;4.718;2023-06-14T13:22:47;30.80;71.40
12708;DHT22;6418;50.824;4.718;2023-06-14T13:25:15;30.80;71.90
12708;DHT22;6418;50.824;4.718;2023-06-14T13:27:41;31.00;70.50
12708;DHT22;6418;50.824;4.718;2023-06-14T13:30:09;31.30;69.40
12708;DHT22;6418;50.824;4.718;2023-06-14T13:32:36;31.20;68.60
12708;DHT22;6418;50.824;4.718;2023-06-14T13:35:05;31.20;68.50
12708;DHT22;6418;50.824;4.718;2023-06-14T13:37:32;31.70;71.10
12708;DHT22;6418;50.824;4.718;2023-06-14T13:39:59;32.10;69.30
12708;DHT22;6418;50.824;4.718;2023-06-14T13:42:26;32.70;69.20
12708;DHT22;6418;50.824;4.718;2023-06-14T13:44:53;33.20;70.00
12708;DHT22;6418;50.824;4.718;2023-06-14T13:47:20;33.50;69.00
12708;DHT22;6418;50.824;4.718;2023-06-14T13:49:46;33.70;67.50
12708;DHT22;6418;50.824;4.718;2023-06-14T13:52:15;34.10;67.20
12708;DHT22;6418;50.824;4.718;2023-06-14T13:54:42;34.30;66.60
12708;DHT22;6418;50.824;4.718;2023-06-14T13:57:09;34.70;66.40
12708;DHT22;6418;50.824;4.718;2023-06-14T13:59:38;33.90;66.10
12708;DHT22;6418;50.824;4.718;2023-06-14T14:02:05;34.20;63.70
12708;DHT22;6418;50.824;4.718;2023-06-14T14:04:32;34.10;63.20
12708;DHT22;6418;50.824;4.718;2023-06-14T14:06:59;34.40;63.30
12708;DHT22;6418;50.824;4.718;2023-06-14T14:09:28;34.70;64.90
12708;DHT22;6418;50.824;4.718;2023-06-14T14:11:54;35.00;63.50
12708;DHT22;6418;50.824;4.718;2023-06-14T14:14:21;35.30;60.90
12708;DHT22;6418;50.824;4.718;2023-06-14T14:16:49;34.90;61.10
12708;DHT22;6418;50.824;4.718;2023-06-14T14:19:17;35.20;61.30
12708;DHT22;6418;50.824;4.718;2023-06-14T14:21:44;35.20;62.60
12708;DHT22;6418;50.824;4.718;2023-06-14T14:24:11;35.00;60.50
12708;DHT22;6418;50.824;4.718;2023-06-14T14:26:39;34.60;61.20
12708;DHT22;6418;50.824;4.718;2023-06-14T14:29:06;34.80;62.10
12708;DHT22;6418;50.824;4.718;2023-06-14T14:31:34;35.20;62.60
12708;DHT22;6418;50.824;4.718;2023-06-14T14:34:01;35.50;61.00
12708;DHT22;6418;50.824;4.718;2023-06-14T14:36:27;35.60;60.60
12708;DHT22;6418;50.824;4.718;2023-06-14T14:38:54;35.30;58.90
12708;DHT22;6418;50.824;4.718;2023-06-14T14:41:21;35.50;59.40
12708;DHT22;6418;50.824;4.718;2023-06-14T14:43:50;35.60;61.00
12708;DHT22;6418;50.824;4.718;2023-06-14T14:46:16;35.40;62.00
12708;DHT22;6418;50.824;4.718;2023-06-14T14:48:43;35.90;61.00
12708;DHT22;6418;50.824;4.718;2023-06-14T14:51:10;36.30;59.40
12708;DHT22;6418;50.824;4.718;2023-06-14T14:53:37;36.60;61.80
12708;DHT22;6418;50.824;4.718;2023-06-14T14:56:04;36.00;59.30
12708;DHT22;6418;50.824;4.718;2023-06-14T14:58:31;36.00;59.40
12708;DHT22;6418;50.824;4.718;2023-06-14T15:00:59;36.40;61.80
12708;DHT22;6418;50.824;4.718;2023-06-14T15:03:26;36.40;61.30
12708;DHT22;6418;50.824;4.718;2023-06-14T15:05:53;36.50;59.10
12708;DHT22;6418;50.824;4.718;2023-06-14T15:08:20;36.40;60.90
12708;DHT22;6418;50.824;4.718;2023-06-14T15:10:47;36.60;60.80
12708;DHT22;6418;50.824;4.718;2023-06-14T15:13:14;36.80;60.00
12708;DHT22;6418;50.824;4.718;2023-06-14T15:15:41;36.80;60.80
12708;DHT22;6418;50.824;4.718;2023-06-14T15:18:09;37.20;59.10
12708;DHT22;6418;50.824;4.718;2023-06-14T15:20:36;37.40;59.70
12708;DHT22;6418;50.824;4.718;2023-06-14T15:23:03;37.30;57.40
12708;DHT22;6418;50.824;4.718;2023-06-14T15:25:30;36.80;57.00
12708;DHT22;6418;50.824;4.718;2023-06-14T15:27:58;37.00;59.70
12708;DHT22;6418;50.824;4.718;2023-06-14T15:30:26;37.10;58.40
12708;DHT22;6418;50.824;4.718;2023-06-14T15:32:54;36.50;56.50
12708;DHT22;6418;50.824;4.718;2023-06-14T15:35:22;35.90;58.10
12708;DHT22;6418;50.824;4.718;2023-06-14T15:37:49;35.90;59.40
12708;DHT22;6418;50.824;4.718;2023-06-14T15:40:16;36.00;59.00
12708;DHT22;6418;50.824;4.718;2023-06-14T15:42:43;36.50;59.50
12708;DHT22;6418;50.824;4.718;2023-06-14T15:45:10;36.90;61.00
12708;DHT22;6418;50.824;4.718;2023-06-14T15:47:37;36.90;59.40
12708;DHT22;6418;50.824;4.718;2023-06-14T15:50:05;36.80;59.90
12708;DHT22;6418;50.824;4.718;2023-06-14T15:52:34;37.40;60.40
12708;DHT22;6418;50.824;4.718;2023-06-14T15:55:01;37.60;59.00
12708;DHT22;6418;50.824;4.718;2023-06-14T15:57:29;37.70;60.20
12708;DHT22;6418;50.824;4.718;2023-06-14T15:59:56;37.90;58.50
12708;DHT22;6418;50.824;4.718;2023-06-14T16:02:22;37.60;59.00
12708;DHT22;6418;50.824;4.718;2023-06-14T16:04:49;37.40;58.40
12708;DHT22;6418;50.824;4.718;2023-06-14T16:07:16;37.60;59.30
12708;DHT22;6418;50.824;4.718;2023-06-14T16:09:44;37.30;57.70
12708;DHT22;6418;50.824;4.718;2023-06-14T16:12:11;37.50;58.80
12708;DHT22;6418;50.824;4.718;2023-06-14T16:14:38;37.90;59.00
12708;DHT22;6418;50.824;4.718;2023-06-14T16:17:05;37.80;57.40
12708;DHT22;6418;50.824;4.718;2023-06-14T16:19:32;37.70;58.70
12708;DHT22;6418;50.824;4.718;2023-06-14T16:21:59;38.20;57.40
12708;DHT22;6418;50.824;4.718;2023-06-14T16:24:27;37.90;56.40
12708;DHT22;6418;50.824;4.718;2023-06-14T16:26:55;38.10;58.30
12708;DHT22;6418;50.824;4.718;2023-06-14T16:29:22;37.90;56.70